sensor_id;sensor_type;location;lat;lon;timestamp;temperature;humidity
47754;DHT22;2038;51.728;6.674;2023-04-09T01:14:58;7.20;99.90
47754;DHT22;2038;51.728;6.674;2023-04-09T01:20:16;7.10;99.90
47754;DHT22;2038;51.728;6.674;2023-04-09T01:23:17;7.10;99.90
47754;DHT22;2038;51.728;6.674;2023-04-09T01:29:14;7.00;99.90
47754;DHT22;2038;51.728;6.674;2023-04-09T01:34:13;7.20;99.90
47754;DHT22;2038;51.728;6.674;2023-04-09T01:36:44;7.10;99.90
47754;DHT22;2038;51.728;6.674;2023-04-09T01:39:17;6.80;99.90
47754;DHT22;2038;51.728;6.674;2023-04-09T01:41:44;7.00;99.90
47754;DHT22;2038;51.728;6.674;2023-04-09T01:44:12;7.10;99.90
47754;DHT22;2038;51.728;6.674;2023-04-09T01:46:39;7.00;99.90
47754;DHT22;2038;51.728;6.674;2023-04-09T01:49:06;7.00;99.90
47754;DHT22;2038;51.728;6.674;2023-04-09T01:51:35;7.00;99.90
47754;DHT22;2038;51.728;6.674;2023-04-09T01:54:04;6.90;99.90
47754;DHT22;2038;51.728;6.674;2023-04-09T01:56:59;6.90;99.90
47754;DHT22;2038;51.728;6.674;2023-04-09T01:59:25;6.70;99.90
47754;DHT22;2038;51.728;6.674;2023-04-09T02:02:05;7.10;99.90
47754;DHT22;2038;51.728;6.674;2023-04-09T02:07:41;6.80;99.90
47754;DHT22;2038;51.728;6.674;2023-04-09T02:10:12;6.90;99.90
47754;DHT22;2038;51.728;6.674;2023-04-09T02:17:43;6.80;99.90
47754;DHT22;2038;51.728;6.674;2023-04-09T02:22:37;6.70;99.90
47754;DHT22;2038;51.728;6.674;2023-04-09T02:25:03;6.70;99.90
47754;DHT22;2038;51.728;6.674;2023-04-09T02:27:31;6.70;99.90
47754;DHT22;2038;51.728;6.674;2023-04-09T02:29:56;6.50;99.90
47754;DHT22;2038;51.728;6.674;2023-04-09T02:32:22;6.50;99.90
47754;DHT22;2038;51.728;6.674;2023-04-09T02:34:48;6.40;99.90
47754;DHT22;2038;51.728;6.674;2023-04-09T02:37:14;6.30;99.90
47754;DHT22;2038;51.728;6.674;2023-04-09T02:39:40;6.40;99.90
47754;DHT22;2038;51.728;6.674;2023-04-09T02:42:06;6.40;99.90
47754;DHT22;2038;51.728;6.674;2023-04-09T02:44:32;6.40;99.90
47754;DHT22;2038;51.728;6.674;2023-04-09T02:49:24;6.20;99.90
47754;DHT22;2038;51.728;6.674;2023-04-09T02:54:16;5.70;99.90
47754;DHT22;2038;51.728;6.674;2023-04-09T02:56:42;6.20;99.90
47754;DHT22;2038;51.728;6.674;2023-04-09T02:59:08;6.20;99.90
47754;DHT22;2038;51.728;6.674;2023-04-09T03:04:00;6.20;99.90
47754;DHT22;2038;51.728;6.674;2023-04-09T03:06:26;6.10;99.90
47754;DHT22;2038;51.728;6.674;2023-04-09T03:08:52;6.10;99.90
47754;DHT22;2038;51.728;6.674;2023-04-09T03:13:44;5.80;99.90
47754;DHT22;2038;51.728;6.674;2023-04-09T03:16:10;6.00;99.90
47754;DHT22;2038;51.728;6.674;2023-04-09T03:18:36;6.00;99.90
47754;DHT22;2038;51.728;6.674;2023-04-09T03:23:32;5.90;99.90
47754;DHT22;2038;51.728;6.674;2023-04-09T03:26:03;5.80;99.90
47754;DHT22;2038;51.728;6.674;2023-04-09T03:28:31;6.10;99.90
47754;DHT22;2038;51.728;6.674;2023-04-09T03:33:23;5.80;99.90
47754;DHT22;2038;51.728;6.674;2023-04-09T03:35:52;5.80;99.90
47754;DHT22;2038;51.728;6.674;2023-04-09T03:40:44;5.70;99.90
47754;DHT22;2038;51.728;6.674;2023-04-09T03:43:10;5.70;99.90
47754;DHT22;2038;51.728;6.674;2023-04-09T03:45:36;5.10;99.90
47754;DHT22;2038;51.728;6.674;2023-04-09T03:50:28;5.70;99.90
47754;DHT22;2038;51.728;6.674;2023-04-09T03:52:54;5.70;99.90
47754;DHT22;2038;51.728;6.674;2023-04-09T03:55:20;5.60;99.90
47754;DHT22;2038;51.728;6.674;2023-04-09T03:57:46;5.60;99.90
47754;DHT22;2038;51.728;6.674;2023-04-09T04:00:12;5.60;99.90
47754;DHT22;2038;51.728;6.674;2023-04-09T04:02:37;5.60;99.90
47754;DHT22;2038;51.728;6.674;2023-04-09T04:05:03;5.60;99.90
47754;DHT22;2038;51.728;6.674;2023-04-09T04:07:31;5.50;99.90
47754;DHT22;2038;51.728;6.674;2023-04-09T04:09:57;5.60;99.90
47754;DHT22;2038;51.728;6.674;2023-04-09T04:12:23;5.50;99.90
47754;DHT22;2038;51.728;6.674;2023-04-09T04:14:49;5.80;99.90
47754;DHT22;2038;51.728;6.674;2023-04-09T04:17:14;5.40;99.90
47754;DHT22;2038;51.728;6.674;2023-04-09T04:19:41;5.40;99.90
47754;DHT22;2038;51.728;6.674;2023-04-09T04:22:07;5.50;99.90
47754;DHT22;2038;51.728;6.674;2023-04-09T04:26:59;5.30;99.90
47754;DHT22;2038;51.728;6.674;2023-04-09T04:29:26;5.10;99.90
47754;DHT22;2038;51.728;6.674;2023-04-09T20:20:50;10.10;99.90
47754;DHT22;2038;51.728;6.674;2023-04-09T20:37:53;9.70;99.90
47754;DHT22;2038;51.728;6.674;2023-04-09T20:42:46;9.60;99.90
47754;DHT22;2038;51.728;6.674;2023-04-09T20:45:12;9.60;99.90
47754;DHT22;2038;51.728;6.674;2023-04-09T20:47:38;9.60;99.90
47754;DHT22;2038;51.728;6.674;2023-04-09T20:50:04;9.60;99.90
47754;DHT22;2038;51.728;6.674;2023-04-09T20:52:30;9.60;99.90
47754;DHT22;2038;51.728;6.674;2023-04-09T20:54:56;9.60;99.90
47754;DHT22;2038;51.728;6.674;2023-04-09T20:57:22;9.60;99.90
47754;DHT22;2038;51.728;6.674;2023-04-09T20:59:48;9.60;99.90
47754;DHT22;2038;51.728;6.674;2023-04-09T21:02:15;9.60;99.90
47754;DHT22;2038;51.728;6.674;2023-04-09T21:04:41;9.60;99.90
47754;DHT22;2038;51.728;6.674;2023-04-09T21:07:07;9.70;99.90
47754;DHT22;2038;51.728;6.674;2023-04-09T21:09:33;9.60;99.90
47754;DHT22;2038;51.728;6.674;2023-04-09T21:12:00;9.60;99.90
47754;DHT22;2038;51.728;6.674;2023-04-09T21:14:27;9.70;99.90
47754;DHT22;2038;51.728;6.674;2023-04-09T21:16:53;9.60;99.90
47754;DHT22;2038;51.728;6.674;2023-04-09T21:19:20;9.50;99.90
47754;DHT22;2038;51.728;6.674;2023-04-09T21:21:46;9.30;99.90
47754;DHT22;2038;51.728;6.674;2023-04-09T21:24:13;9.40;99.90
47754;DHT22;2038;51.728;6.674;2023-04-09T21:26:40;9.50;99.90
47754;DHT22;2038;51.728;6.674;2023-04-09T21:29:06;9.50;99.90
47754;DHT22;2038;51.728;6.674;2023-04-09T21:31:32;9.40;99.90
47754;DHT22;2038;51.728;6.674;2023-04-09T21:33:57;9.40;99.90
47754;DHT22;2038;51.728;6.674;2023-04-09T21:36:25;9.40;99.90
47754;DHT22;2038;51.728;6.674;2023-04-09T21:38:51;9.40;99.90
47754;DHT22;2038;51.728;6.674;2023-04-09T21:41:17;9.30;99.90
47754;DHT22;2038;51.728;6.674;2023-04-09T21:43:42;9.40;99.90
47754;DHT22;2038;51.728;6.674;2023-04-09T21:46:08;9.20;99.90
47754;DHT22;2038;51.728;6.674;2023-04-09T21:48:34;9.20;99.90
47754;DHT22;2038;51.728;6.674;2023-04-09T21:51:00;9.20;99.90
47754;DHT22;2038;51.728;6.674;2023-04-09T21:53:26;9.20;99.90
47754;DHT22;2038;51.728;6.674;2023-04-09T21:55:55;9.20;99.90
